Time;durP1;ratioP1;P1;durP2;ratioP2;P2;SDS_P1;SDS_P2;PMS_P1;PMS_P2;Temp;Humidity;BMP_temperature;BMP_pressure;BME280_temperature;BME280_humidity;BME280_pressure;Samples;Min_cycle;Max_cycle;Signal;HPM_P1;HPM_P2
2022/03/05 00:00:20;;;;;;;13.30;5.88;;;3.30;95.10;;;;;;5119077;27;20505;-80
2022/03/05 00:02:46;;;;;;;12.38;4.93;;;3.30;95.10;;;;;;5136020;27;20440;-80
2022/03/05 00:05:13;;;;;;;12.82;5.30;;;3.20;95.10;;;;;;5136060;27;20179;-80
2022/03/05 00:07:39;;;;;;;12.00;5.50;;;3.20;95.20;;;;;;5118931;27;20043;-80
2022/03/05 00:10:05;;;;;;;10.95;5.03;;;3.20;95.20;;;;;;5118920;27;20046;-80
2022/03/05 00:12:31;;;;;;;11.30;5.40;;;3.30;95.30;;;;;;5135833;27;20048;-80
2022/03/05 00:14:57;;;;;;;12.32;5.60;;;3.30;95.10;;;;;;5118780;27;20043;-79
2022/03/05 00:17:23;;;;;;;11.35;5.60;;;3.30;95.20;;;;;;5101880;27;20431;-80
2022/03/05 00:19:48;;;;;;;12.30;5.60;;;3.10;95.20;;;;;;5117954;27;20089;-80
2022/03/05 00:22:14;;;;;;;13.98;6.18;;;3.10;95.10;;;;;;5136128;27;20474;-79
2022/03/05 00:24:40;;;;;;;14.05;6.03;;;3.10;95.20;;;;;;5101576;27;20078;-80
2022/03/05 00:27:06;;;;;;;11.32;5.63;;;3.00;95.10;;;;;;5135536;27;20068;-79
2022/03/05 00:29:31;;;;;;;16.50;7.53;;;2.90;95.30;;;;;;5135858;27;20050;-80
2022/03/05 00:31:57;;;;;;;13.73;6.30;;;2.90;95.20;;;;;;5084153;27;20035;-80
2022/03/05 00:34:23;;;;;;;11.50;5.95;;;2.90;95.30;;;;;;5134748;27;20039;-80
2022/03/05 00:36:48;;;;;;;15.57;6.60;;;2.90;95.30;;;;;;5118525;27;20527;-79
2022/03/05 00:39:14;;;;;;;11.40;5.63;;;2.90;95.30;;;;;;5135114;27;20058;-80
2022/03/05 00:41:40;;;;;;;13.95;6.15;;;3.00;95.40;;;;;;5118289;27;20398;-80
2022/03/05 00:44:06;;;;;;;12.10;6.28;;;3.10;95.20;;;;;;5135451;27;20126;-80
2022/03/05 00:46:32;;;;;;;13.98;6.32;;;3.10;95.10;;;;;;5135153;27;20089;-80
2022/03/05 00:48:58;;;;;;;12.90;5.90;;;3.00;95.10;;;;;;5118091;27;20043;-80
2022/03/05 00:51:24;;;;;;;14.05;6.35;;;3.20;95.10;;;;;;5118117;27;20471;-80
2022/03/05 00:53:50;;;;;;;11.52;5.88;;;2.90;95.00;;;;;;5118738;27;20046;-80
2022/03/05 00:56:16;;;;;;;11.38;5.45;;;2.90;95.20;;;;;;5101173;27;20054;-80
2022/03/05 00:58:41;;;;;;;12.07;5.30;;;2.90;95.20;;;;;;5117617;27;20054;-80
2022/03/05 01:01:07;;;;;;;12.18;5.90;;;3.00;95.10;;;;;;5101053;27;20047;-80
2022/03/05 01:03:33;;;;;;;11.15;5.43;;;2.90;95.10;;;;;;5117477;27;20051;-80
2022/03/05 01:05:58;;;;;;;12.60;5.75;;;3.00;95.10;;;;;;5118212;27;20096;-80
2022/03/05 01:08:24;;;;;;;15.40;6.20;;;3.00;95.00;;;;;;5134225;27;20054;-80
2022/03/05 01:10:50;;;;;;;13.15;5.82;;;2.90;95.00;;;;;;5100686;27;20038;-79
2022/03/05 01:13:16;;;;;;;14.50;6.30;;;2.90;95.10;;;;;;5134730;27;20047;-80
2022/03/05 01:15:41;;;;;;;11.85;6.18;;;2.90;95.00;;;;;;5134401;27;20051;-80
2022/03/05 01:18:07;;;;;;;14.77;6.30;;;2.90;95.00;;;;;;5135656;27;20047;-80
2022/03/05 01:20:33;;;;;;;13.68;6.00;;;2.90;94.90;;;;;;5138356;27;20086;-80
2022/03/05 01:22:59;;;;;;;13.63;5.97;;;2.90;95.00;;;;;;5121293;27;20481;-80
2022/03/05 01:25:24;;;;;;;13.18;6.00;;;2.90;94.90;;;;;;5137988;27;20043;-79
2022/03/05 01:27:51;;;;;;;13.48;6.40;;;2.90;94.90;;;;;;5137745;27;20096;-80
2022/03/05 01:30:17;;;;;;;13.40;6.28;;;2.90;94.90;;;;;;5120658;27;20378;-80
2022/03/05 01:32:42;;;;;;;15.45;7.78;;;3.00;95.00;;;;;;5120538;27;20050;-80
2022/03/05 01:35:09;;;;;;;16.27;7.18;;;3.10;94.90;;;;;;5120489;27;20042;-79
2022/03/05 01:37:35;;;;;;;11.55;5.82;;;3.00;94.90;;;;;;5137450;27;20049;-80
2022/03/05 01:40:00;;;;;;;13.05;6.40;;;3.10;94.80;;;;;;5138089;27;20038;-80
2022/03/05 01:42:26;;;;;;;15.75;6.10;;;3.00;94.70;;;;;;5120495;27;20469;-80
2022/03/05 01:44:52;;;;;;;15.68;6.50;;;3.00;94.70;;;;;;5120132;27;20507;-79
2022/03/05 01:47:19;;;;;;;12.70;6.00;;;3.20;95.00;;;;;;5137488;27;20129;-80
2022/03/05 01:49:44;;;;;;;14.15;6.28;;;3.00;94.80;;;;;;5137559;27;20050;-79
2022/03/05 01:52:11;;;;;;;11.65;6.47;;;3.00;94.70;;;;;;5137463;27;20180;-79
2022/03/05 01:54:37;;;;;;;14.93;6.88;;;3.00;94.70;;;;;;5137600;27;20050;-80
2022/03/05 01:57:04;;;;;;;15.05;7.38;;;2.80;94.70;;;;;;5103267;27;20082;-80
2022/03/05 01:59:29;;;;;;;15.40;6.97;;;2.90;94.70;;;;;;5120868;27;20188;-80
2022/03/05 02:01:56;;;;;;;15.60;6.82;;;2.80;94.70;;;;;;5136836;27;20465;-81
2022/03/05 02:04:21;;;;;;;12.55;6.47;;;2.80;94.80;;;;;;5137685;27;20065;-80
2022/03/05 02:06:47;;;;;;;16.05;7.30;;;2.80;94.80;;;;;;5137144;27;20043;-79
2022/03/05 02:09:13;;;;;;;15.32;7.20;;;2.70;94.70;;;;;;5136832;27;20042;-80
2022/03/05 02:11:39;;;;;;;14.35;7.18;;;2.70;94.90;;;;;;5120052;27;20042;-79
2022/03/05 02:14:05;;;;;;;12.13;7.03;;;2.70;94.90;;;;;;5103215;27;20129;-79
2022/03/05 02:16:31;;;;;;;13.25;6.55;;;2.80;95.00;;;;;;5120077;27;20047;-80
2022/03/05 02:18:57;;;;;;;11.85;6.50;;;2.70;94.80;;;;;;5116898;28;20409;-80
2022/03/05 02:21:27;;;;;;;14.02;6.82;;;2.60;94.80;;;;;;5116552;28;20390;-79
2022/03/05 02:23:54;;;;;;;13.68;6.07;;;2.50;94.90;;;;;;5133744;28;20137;-79
2022/03/05 02:26:21;;;;;;;11.65;5.93;;;2.40;94.90;;;;;;5116366;28;20039;-80
2022/03/05 02:28:47;;;;;;;13.38;6.18;;;2.40;95.10;;;;;;5133456;28;20444;-79
2022/03/05 02:31:12;;;;;;;15.13;6.80;;;2.50;95.10;;;;;;5099435;28;20471;-79
2022/03/05 02:33:40;;;;;;;15.15;6.63;;;2.50;95.00;;;;;;5116077;28;20134;-79
2022/03/05 02:36:05;;;;;;;11.50;5.88;;;2.40;95.00;;;;;;5116497;28;20192;-80
2022/03/05 02:38:31;;;;;;;14.13;6.10;;;2.50;95.00;;;;;;5116361;28;20557;-80
2022/03/05 02:40:57;;;;;;;10.70;5.80;;;2.50;94.80;;;;;;5116425;28;20043;-79
2022/03/05 02:43:23;;;;;;;12.00;5.80;;;2.50;94.90;;;;;;5116223;28;20122;-80
2022/03/05 02:45:50;;;;;;;18.27;6.75;;;2.50;94.90;;;;;;5133461;28;20042;-80
2022/03/05 02:48:17;;;;;;;12.15;5.97;;;2.50;94.90;;;;;;5099287;28;20109;-80
2022/03/05 02:50:45;;;;;;;11.25;5.88;;;2.40;94.80;;;;;;5099340;28;20047;-80
2022/03/05 02:53:11;;;;;;;13.48;6.13;;;2.30;94.90;;;;;;5116305;28;20047;-80
2022/03/05 02:55:37;;;;;;;13.80;5.90;;;2.30;95.00;;;;;;5116374;28;20097;-80
2022/03/05 02:58:03;;;;;;;13.07;5.50;;;2.40;94.90;;;;;;5118639;27;20042;-79
2022/03/05 03:00:30;;;;;;;12.38;5.68;;;2.40;94.90;;;;;;5137223;27;20047;-79
2022/03/05 03:02:56;;;;;;;15.35;5.68;;;2.40;94.90;;;;;;5119647;27;20130;-81
2022/03/05 03:05:21;;;;;;;14.57;6.07;;;2.40;94.80;;;;;;5120219;27;20082;-79
2022/03/05 03:07:48;;;;;;;16.10;6.55;;;2.40;94.80;;;;;;5119956;27;20039;-79
2022/03/05 03:10:15;;;;;;;13.18;6.78;;;2.40;94.90;;;;;;5120173;27;20054;-80
2022/03/05 03:12:41;;;;;;;12.65;5.80;;;2.50;94.80;;;;;;5136839;27;20126;-80
2022/03/05 03:15:08;;;;;;;11.13;5.57;;;2.60;94.90;;;;;;5137179;27;20055;-79
2022/03/05 03:17:41;;;;;;;14.50;6.03;;;2.40;94.90;;;;;;5119820;27;20474;-80
2022/03/05 03:20:09;;;;;;;15.23;6.05;;;2.40;94.80;;;;;;5136549;27;20505;-80
2022/03/05 03:22:35;;;;;;;12.63;5.88;;;2.30;94.70;;;;;;5136872;27;20043;-80
2022/03/05 03:25:00;;;;;;;12.38;5.93;;;2.30;94.90;;;;;;5119772;27;20050;-80
2022/03/05 03:27:26;;;;;;;11.50;5.75;;;2.30;94.90;;;;;;5119874;27;20062;-80
2022/03/05 03:29:51;;;;;;;12.77;6.10;;;2.40;94.90;;;;;;5119678;27;20129;-80
2022/03/05 03:32:17;;;;;;;12.00;5.80;;;2.40;94.80;;;;;;5119100;27;20096;-80
2022/03/05 03:34:43;;;;;;;14.35;6.10;;;2.40;94.90;;;;;;5119517;27;20058;-80
2022/03/05 03:37:08;;;;;;;12.23;5.80;;;2.50;94.90;;;;;;5136617;27;20043;-80
2022/03/05 03:39:34;;;;;;;12.82;5.75;;;2.50;94.70;;;;;;5136601;27;20130;-80
2022/03/05 03:42:00;;;;;;;13.52;5.80;;;2.40;94.70;;;;;;5085581;27;20104;-80
2022/03/05 03:44:25;;;;;;;12.60;5.60;;;2.40;94.70;;;;;;5119896;27;20043;-80
2022/03/05 03:46:53;;;;;;;14.70;6.07;;;2.50;94.60;;;;;;5118956;27;20043;-80
2022/03/05 03:49:18;;;;;;;11.82;5.65;;;2.50;94.60;;;;;;5119741;27;20082;-80
2022/03/05 03:51:44;;;;;;;12.60;5.75;;;2.40;94.70;;;;;;5085975;27;20079;-80
2022/03/05 03:54:10;;;;;;;14.15;6.57;;;2.50;94.70;;;;;;5136290;27;20043;-80
2022/03/05 03:56:35;;;;;;;12.75;5.75;;;2.50;94.50;;;;;;5119350;27;20047;-81
2022/03/05 03:59:01;;;;;;;13.10;5.72;;;2.50;94.70;;;;;;5102112;27;20126;-80
2022/03/05 04:01:27;;;;;;;13.95;5.32;;;2.50;94.60;;;;;;5136159;27;20032;-80
2022/03/05 04:03:53;;;;;;;13.63;6.13;;;2.60;94.50;;;;;;5118563;27;20130;-80
2022/03/05 04:06:18;;;;;;;13.27;5.82;;;2.50;94.60;;;;;;5085083;27;20425;-80
2022/03/05 04:08:44;;;;;;;13.68;5.65;;;2.50;94.60;;;;;;5101162;27;20374;-80
2022/03/05 04:11:18;;;;;;;13.85;5.70;;;2.50;94.60;;;;;;5136046;27;20111;-80
2022/03/05 04:13:47;;;;;;;11.88;4.97;;;2.50;94.60;;;;;;5135985;27;20474;-80
2022/03/05 04:16:14;;;;;;;10.40;5.22;;;2.50;94.60;;;;;;5135769;27;20047;-80
2022/03/05 04:18:40;;;;;;;13.68;5.95;;;2.50;94.60;;;;;;5135677;27;20059;-80
2022/03/05 04:21:09;;;;;;;9.60;4.72;;;2.30;94.50;;;;;;5118794;27;20059;-81
2022/03/05 04:23:34;;;;;;;12.65;5.97;;;2.40;94.80;;;;;;5135649;27;20046;-80
2022/03/05 04:26:00;;;;;;;11.82;5.13;;;2.30;94.70;;;;;;5118442;27;20130;-80
2022/03/05 04:28:26;;;;;;;12.35;5.03;;;2.30;94.80;;;;;;5135320;27;20474;-81
2022/03/05 04:30:52;;;;;;;13.63;5.65;;;2.20;94.80;;;;;;5135542;27;20080;-81
2022/03/05 04:33:18;;;;;;;12.10;5.53;;;2.20;94.70;;;;;;5134999;27;20035;-81
2022/03/05 04:35:44;;;;;;;13.63;5.93;;;2.20;94.80;;;;;;5135147;27;20035;-80
2022/03/05 04:38:10;;;;;;;12.93;5.57;;;2.30;94.80;;;;;;5135057;27;20134;-81
2022/03/05 04:40:35;;;;;;;15.45;5.20;;;2.30;94.80;;;;;;5101324;27;20077;-81
2022/03/05 04:43:02;;;;;;;16.05;5.78;;;2.30;94.80;;;;;;5135616;27;20418;-80
2022/03/05 04:45:28;;;;;;;11.68;5.50;;;2.30;94.90;;;;;;5135266;27;20138;-81
2022/03/05 04:47:54;;;;;;;14.98;6.07;;;2.30;94.80;;;;;;5135028;27;20125;-81
2022/03/05 04:50:20;;;;;;;11.93;5.60;;;2.40;94.90;;;;;;5135129;27;20439;-81
2022/03/05 04:52:47;;;;;;;11.23;5.22;;;2.40;95.00;;;;;;5117768;27;20482;-81
2022/03/05 04:55:13;;;;;;;11.32;5.18;;;2.50;94.90;;;;;;5135113;27;20095;-81
2022/03/05 04:57:38;;;;;;;11.07;5.30;;;2.50;95.00;;;;;;5135005;27;20481;-81
2022/03/05 05:00:07;;;;;;;13.32;6.00;;;2.40;94.70;;;;;;5100892;27;20050;-81
2022/03/05 05:02:33;;;;;;;11.70;5.65;;;2.40;94.70;;;;;;5134885;27;20426;-81
2022/03/05 05:04:59;;;;;;;16.13;6.97;;;2.40;95.00;;;;;;5117818;27;20134;-81
2022/03/05 05:07:25;;;;;;;12.52;6.03;;;2.30;94.80;;;;;;5134313;27;20138;-81
2022/03/05 05:09:51;;;;;;;14.73;6.10;;;2.20;95.00;;;;;;5134720;27;20051;-81
2022/03/05 05:12:16;;;;;;;11.82;5.32;;;2.10;95.10;;;;;;5134773;27;20093;-81
2022/03/05 05:14:42;;;;;;;10.98;5.28;;;2.10;95.10;;;;;;5117553;27;20130;-81
2022/03/05 05:17:08;;;;;;;12.35;5.55;;;2.10;95.10;;;;;;5134508;27;20039;-81
2022/03/05 05:19:33;;;;;;;12.20;5.07;;;2.00;95.10;;;;;;5133977;27;20051;-81
2022/03/05 05:22:04;;;;;;;13.90;5.78;;;1.90;95.00;;;;;;5134438;27;20085;-81
2022/03/05 05:24:32;;;;;;;10.73;5.18;;;1.90;95.20;;;;;;5117634;27;20054;-81
2022/03/05 05:26:58;;;;;;;11.55;5.28;;;1.80;95.20;;;;;;5117479;27;20039;-81
2022/03/05 05:29:24;;;;;;;10.35;5.20;;;1.80;95.30;;;;;;5100142;27;20054;-81
2022/03/05 05:31:50;;;;;;;13.98;6.00;;;1.80;95.40;;;;;;5134269;27;20035;-80
2022/03/05 05:34:17;;;;;;;18.95;5.60;;;1.80;95.40;;;;;;5116572;27;20036;-81
2022/03/05 05:36:43;;;;;;;11.70;5.43;;;1.80;95.30;;;;;;5117072;27;20418;-82
2022/03/05 05:39:11;;;;;;;10.85;4.88;;;1.90;95.40;;;;;;5134082;27;20482;-81
2022/03/05 05:41:38;;;;;;;10.52;5.07;;;1.80;95.30;;;;;;5134044;27;20497;-81
2022/03/05 05:44:05;;;;;;;12.25;5.18;;;1.80;95.30;;;;;;5109227;27;20048;-82
2022/03/05 05:46:31;;;;;;;10.27;4.97;;;1.70;95.30;;;;;;5115871;27;20051;-82
2022/03/05 05:48:57;;;;;;;9.98;5.18;;;1.70;95.50;;;;;;5099436;27;20538;-81
2022/03/05 05:51:27;;;;;;;13.23;6.00;;;1.70;95.50;;;;;;5117008;27;20492;-81
2022/03/05 05:53:54;;;;;;;12.35;5.63;;;1.60;95.60;;;;;;5133973;27;20509;-81
2022/03/05 05:56:20;;;;;;;11.93;5.32;;;1.60;95.70;;;;;;5133712;27;20055;-81
2022/03/05 05:58:48;;;;;;;13.10;5.53;;;1.70;95.80;;;;;;5133716;27;20104;-81
2022/03/05 06:01:14;;;;;;;11.73;5.47;;;1.70;95.60;;;;;;5116934;27;20485;-81
2022/03/05 06:03:40;;;;;;;12.27;6.18;;;1.70;95.50;;;;;;5133675;27;20112;-81
2022/03/05 06:06:06;;;;;;;15.13;5.63;;;1.80;95.60;;;;;;5099885;27;20051;-81
2022/03/05 06:08:32;;;;;;;11.23;5.50;;;1.80;95.70;;;;;;5099307;27;20100;-82
2022/03/05 06:10:57;;;;;;;14.75;5.90;;;1.90;95.70;;;;;;5116545;28;20043;-81
2022/03/05 06:13:23;;;;;;;11.13;5.18;;;1.90;95.50;;;;;;5133402;27;20047;-81
2022/03/05 06:15:49;;;;;;;16.92;6.78;;;2.00;95.50;;;;;;5116386;27;20144;-81
2022/03/05 06:18:15;;;;;;;11.40;5.70;;;2.00;95.50;;;;;;5116721;27;20046;-81
2022/03/05 06:20:41;;;;;;;10.85;5.32;;;1.90;95.40;;;;;;5102646;27;20050;-81
2022/03/05 06:23:06;;;;;;;16.40;5.95;;;1.90;95.40;;;;;;5119604;27;20122;-81
2022/03/05 06:25:32;;;;;;;12.63;5.75;;;1.80;95.40;;;;;;5119657;27;20043;-81
2022/03/05 06:27:58;;;;;;;14.50;6.15;;;1.80;95.40;;;;;;5119469;27;20039;-81
2022/03/05 06:30:24;;;;;;;12.00;6.22;;;1.80;95.50;;;;;;5102951;27;20054;-81
2022/03/05 06:32:50;;;;;;;12.65;5.45;;;1.80;95.60;;;;;;5104266;27;20043;-81
2022/03/05 06:35:16;;;;;;;15.10;6.03;;;1.70;95.60;;;;;;5106789;27;20051;-81
2022/03/05 06:37:42;;;;;;;12.88;5.55;;;1.80;95.70;;;;;;5140922;27;20386;-81
2022/03/05 06:40:11;;;;;;;12.27;5.32;;;1.70;95.80;;;;;;5123726;27;20131;-81
2022/03/05 06:42:39;;;;;;;11.93;5.32;;;1.70;95.80;;;;;;5141024;27;20047;-81
2022/03/05 06:45:05;;;;;;;13.07;6.00;;;1.80;95.80;;;;;;5140771;27;20047;-81
2022/03/05 06:47:31;;;;;;;11.00;5.35;;;1.80;95.80;;;;;;5106700;27;20039;-81
2022/03/05 06:49:57;;;;;;;12.95;5.78;;;1.80;95.70;;;;;;5140498;27;20049;-81
2022/03/05 06:52:23;;;;;;;14.73;6.28;;;1.80;95.80;;;;;;5140523;27;20078;-81
2022/03/05 06:54:49;;;;;;;14.10;5.97;;;1.80;95.90;;;;;;5123375;27;20445;-81
2022/03/05 06:57:15;;;;;;;13.57;5.88;;;1.90;95.90;;;;;;5123688;27;20117;-82
2022/03/05 06:59:40;;;;;;;13.80;5.90;;;1.90;95.80;;;;;;5140144;27;20089;-81
2022/03/05 07:02:07;;;;;;;14.63;6.20;;;1.80;95.90;;;;;;5123118;27;20104;-81
2022/03/05 07:04:32;;;;;;;16.17;6.45;;;1.90;95.90;;;;;;5106115;27;20069;-81
2022/03/05 07:06:58;;;;;;;14.85;6.28;;;2.00;96.00;;;;;;5106274;27;20043;-81
2022/03/05 07:09:24;;;;;;;12.63;6.45;;;1.90;95.90;;;;;;5122932;27;20038;-81
2022/03/05 07:11:49;;;;;;;15.70;6.70;;;1.90;96.00;;;;;;5123515;27;20082;-81
2022/03/05 07:14:15;;;;;;;16.25;7.07;;;2.00;96.00;;;;;;5140365;27;20046;-81
2022/03/05 07:16:41;;;;;;;17.33;7.00;;;2.30;96.00;;;;;;5105973;27;20043;-81
2022/03/05 07:19:07;;;;;;;17.25;6.80;;;2.30;96.10;;;;;;5100911;27;20394;-82
2022/03/05 07:21:33;;;;;;;19.10;7.60;;;2.30;95.80;;;;;;5102729;27;20047;-81
2022/03/05 07:23:59;;;;;;;16.10;6.88;;;2.20;95.80;;;;;;5119816;27;20047;-81
2022/03/05 07:26:25;;;;;;;15.95;6.60;;;2.30;95.90;;;;;;5119442;27;20057;-81
2022/03/05 07:28:51;;;;;;;14.25;7.68;;;2.40;95.90;;;;;;5136430;27;20104;-81
2022/03/05 07:31:17;;;;;;;15.25;6.70;;;2.50;95.90;;;;;;5136604;27;20478;-82
2022/03/05 07:33:43;;;;;;;16.10;7.68;;;2.70;95.90;;;;;;5135923;27;20069;-81
2022/03/05 07:36:09;;;;;;;14.00;6.90;;;2.90;95.70;;;;;;5119612;27;20043;-81
2022/03/05 07:38:35;;;;;;;20.38;7.63;;;2.90;95.60;;;;;;5119333;27;20035;-81
2022/03/05 07:41:01;;;;;;;16.05;7.05;;;3.00;95.50;;;;;;5102195;27;20119;-82
2022/03/05 07:43:27;;;;;;;17.25;7.68;;;3.00;95.60;;;;;;5136391;27;20054;-81
2022/03/05 07:45:53;;;;;;;16.48;8.00;;;3.10;95.40;;;;;;5136161;27;20039;-81
2022/03/05 07:48:21;;;;;;;17.83;7.82;;;2.80;95.50;;;;;;5119112;27;20192;-81
2022/03/05 07:50:48;;;;;;;16.88;7.28;;;2.80;95.80;;;;;;5102562;27;20443;-81
2022/03/05 07:53:14;;;;;;;18.75;8.32;;;2.80;95.80;;;;;;5136902;27;20051;-81
2022/03/05 07:55:40;;;;;;;16.35;7.25;;;2.80;95.80;;;;;;5135628;27;20054;-82
2022/03/05 07:58:06;;;;;;;17.55;8.25;;;2.90;95.90;;;;;;5098056;28;20105;-82
2022/03/05 08:00:32;;;;;;;14.43;7.22;;;3.10;95.80;;;;;;5116204;28;20047;-81
2022/03/05 08:02:58;;;;;;;18.67;8.38;;;3.10;95.70;;;;;;5097590;28;20047;-82
2022/03/05 08:05:24;;;;;;;18.67;8.02;;;3.30;95.70;;;;;;5099083;28;20054;-81
2022/03/05 08:07:50;;;;;;;16.30;7.68;;;3.50;95.60;;;;;;5097926;28;20044;-78
2022/03/05 08:10:16;;;;;;;18.58;8.23;;;3.50;95.60;;;;;;5115228;28;20048;-74
2022/03/05 08:12:42;;;;;;;18.80;8.57;;;3.60;95.50;;;;;;5115201;28;20573;-72
2022/03/05 08:15:09;;;;;;;16.90;7.82;;;3.40;95.40;;;;;;5115173;28;20044;-72
2022/03/05 08:17:35;;;;;;;23.02;8.35;;;3.50;95.80;;;;;;5098064;28;20040;-73
2022/03/05 08:20:00;;;;;;;18.02;8.70;;;3.60;95.70;;;;;;5114786;28;20104;-74
2022/03/05 08:22:26;;;;;;;16.55;7.78;;;3.70;95.50;;;;;;5115075;28;20048;-74
2022/03/05 08:24:52;;;;;;;19.25;8.68;;;3.80;95.50;;;;;;5115545;28;20398;-74
2022/03/05 08:27:18;;;;;;;17.30;8.43;;;3.90;95.40;;;;;;5114581;28;20047;-74
2022/03/05 08:29:44;;;;;;;20.00;8.63;;;4.00;95.40;;;;;;5114687;28;20040;-73
2022/03/05 08:32:09;;;;;;;16.65;7.40;;;4.10;95.30;;;;;;5119920;28;20047;-78
2022/03/05 08:34:35;;;;;;;16.85;7.97;;;4.00;95.40;;;;;;5122981;28;20061;-74
2022/03/05 08:37:01;;;;;;;17.88;9.05;;;4.00;95.40;;;;;;5116223;28;20100;-73
2022/03/05 08:39:28;;;;;;;22.75;9.20;;;4.00;95.10;;;;;;5114636;28;20046;-73
2022/03/05 08:41:54;;;;;;;20.88;8.15;;;4.00;95.10;;;;;;5114428;28;20048;-72
2022/03/05 08:44:20;;;;;;;22.50;8.95;;;4.00;95.00;;;;;;5115731;28;20055;-73
2022/03/05 08:46:45;;;;;;;20.50;8.43;;;4.10;94.90;;;;;;5114744;28;20062;-72
2022/03/05 08:49:11;;;;;;;19.48;8.35;;;4.00;95.00;;;;;;5114366;28;20139;-73
2022/03/05 08:51:38;;;;;;;19.05;8.32;;;4.00;95.10;;;;;;5115429;28;20382;-73
2022/03/05 08:54:04;;;;;;;18.33;8.25;;;4.00;95.10;;;;;;5115833;28;20062;-73
2022/03/05 08:56:30;;;;;;;18.52;8.63;;;4.00;94.90;;;;;;5113847;28;20048;-73
2022/03/05 08:58:55;;;;;;;16.98;8.05;;;4.00;94.90;;;;;;5114623;28;20051;-73
2022/03/05 09:01:21;;;;;;;16.60;8.27;;;4.00;95.00;;;;;;5115350;28;20043;-72
2022/03/05 09:03:47;;;;;;;20.60;9.05;;;4.00;95.00;;;;;;5114655;28;20101;-73
2022/03/05 09:06:12;;;;;;;19.52;8.15;;;4.10;95.00;;;;;;5114062;28;20050;-73
2022/03/05 09:08:38;;;;;;;21.58;8.95;;;4.10;95.10;;;;;;5114003;28;20043;-72
2022/03/05 09:11:08;;;;;;;20.77;8.75;;;3.90;95.00;;;;;;5114068;28;20043;-72
2022/03/05 09:13:34;;;;;;;18.63;8.77;;;4.10;95.10;;;;;;5114868;28;20537;-73
2022/03/05 09:15:59;;;;;;;18.88;8.63;;;4.20;95.00;;;;;;5113812;28;20056;-73
2022/03/05 09:18:25;;;;;;;18.20;8.30;;;4.30;94.80;;;;;;5115875;27;20050;-74
2022/03/05 09:20:51;;;;;;;17.40;7.60;;;4.40;94.70;;;;;;5116876;27;20055;-73
2022/03/05 09:23:17;;;;;;;17.20;9.07;;;4.30;94.80;;;;;;5135684;27;20053;-73
2022/03/05 09:25:42;;;;;;;18.88;9.18;;;4.50;94.90;;;;;;5135466;27;20410;-73
2022/03/05 09:28:08;;;;;;;19.05;8.90;;;4.60;94.80;;;;;;5113390;27;20063;-74
2022/03/05 09:30:34;;;;;;;20.05;9.15;;;4.70;94.70;;;;;;5120427;27;20050;-74
2022/03/05 09:32:59;;;;;;;22.42;10.27;;;4.60;94.40;;;;;;5110201;27;20062;-74
2022/03/05 09:35:25;;;;;;;18.92;8.95;;;4.70;94.20;;;;;;5117412;27;20047;-74
2022/03/05 09:37:51;;;;;;;24.48;9.82;;;4.60;94.40;;;;;;5120118;27;20431;-74
2022/03/05 09:40:17;;;;;;;25.30;10.25;;;4.50;94.50;;;;;;5103243;27;20499;-74
2022/03/05 09:42:44;;;;;;;19.20;8.98;;;4.50;94.70;;;;;;5119921;27;20099;-74
2022/03/05 09:45:14;;;;;;;21.50;9.60;;;4.70;94.40;;;;;;5128001;27;20486;-74
2022/03/05 09:47:41;;;;;;;22.55;9.77;;;4.70;94.20;;;;;;5116675;27;20047;-74
2022/03/05 09:50:08;;;;;;;20.48;9.63;;;5.00;94.00;;;;;;5101633;27;20509;-72
2022/03/05 09:52:35;;;;;;;19.08;8.80;;;5.00;94.00;;;;;;5134533;27;20054;-73
2022/03/05 09:55:02;;;;;;;33.33;9.70;;;5.00;94.30;;;;;;5137298;27;20046;-74
2022/03/05 09:57:28;;;;;;;20.27;9.18;;;4.80;94.20;;;;;;5137188;27;20043;-75
2022/03/05 09:59:53;;;;;;;20.20;9.57;;;4.90;94.30;;;;;;5120282;27;20362;-76
2022/03/05 10:02:19;;;;;;;24.05;9.85;;;5.10;94.00;;;;;;5120421;27;20149;-76
2022/03/05 10:04:45;;;;;;;21.50;10.38;;;5.40;93.70;;;;;;5136548;27;20069;-76
2022/03/05 10:07:12;;;;;;;22.15;9.63;;;5.50;93.70;;;;;;5136186;27;20039;-79
2022/03/05 10:09:39;;;;;;;17.70;9.43;;;5.60;93.60;;;;;;5106621;27;20039;-76
2022/03/05 10:12:24;;;;;;;24.13;10.27;;;5.60;93.30;;;;;;5099673;28;20103;-77
2022/03/05 10:15:02;;;;;;;22.13;9.68;;;5.60;93.20;;;;;;5116378;27;20120;-81
2022/03/05 10:17:28;;;;;;;22.63;10.43;;;5.70;93.10;;;;;;5105755;27;20047;-73
2022/03/05 10:20:05;;;;;;;23.60;10.35;;;5.80;93.00;;;;;;5116600;28;20545;-72
2022/03/05 10:22:35;;;;;;;23.08;9.88;;;6.10;92.80;;;;;;5099281;28;20058;-73
2022/03/05 10:25:01;;;;;;;23.15;10.00;;;6.20;92.70;;;;;;5117092;28;20043;-77
2022/03/05 10:27:30;;;;;;;23.08;10.05;;;6.30;92.70;;;;;;5116537;28;20497;-76
2022/03/05 10:29:56;;;;;;;24.88;10.95;;;6.60;92.40;;;;;;5099593;28;20047;-75
2022/03/05 10:32:22;;;;;;;23.55;10.63;;;6.70;92.30;;;;;;5116286;28;20054;-78
2022/03/05 10:34:50;;;;;;;23.85;10.40;;;6.80;92.00;;;;;;5116091;28;20434;-81
2022/03/05 10:37:17;;;;;;;25.42;10.77;;;6.90;91.80;;;;;;5099517;28;20394;-76
2022/03/05 10:39:45;;;;;;;20.10;9.65;;;7.00;91.70;;;;;;5134514;28;20039;-78
2022/03/05 10:42:23;;;;;;;22.55;10.30;;;7.30;91.50;;;;;;5116421;28;20500;-75
2022/03/05 10:45:01;;;;;;;21.50;10.60;;;7.30;91.40;;;;;;5134801;28;20363;-75
2022/03/05 10:47:39;;;;;;;21.48;11.32;;;7.40;91.60;;;;;;5116053;28;20047;-78
2022/03/05 10:50:07;;;;;;;26.23;11.30;;;7.90;91.40;;;;;;5116407;28;20548;-75
2022/03/05 10:52:54;;;;;;;24.98;10.88;;;8.20;91.00;;;;;;5116106;28;20393;-76
2022/03/05 10:55:23;;;;;;;21.42;10.52;;;8.40;90.80;;;;;;5134256;28;20482;-73
2022/03/05 10:58:17;;;;;;;21.25;10.27;;;8.40;90.70;;;;;;5116273;28;20051;-74
2022/03/05 11:00:45;;;;;;;23.48;11.43;;;8.40;90.30;;;;;;5099570;28;20039;-73
2022/03/05 11:03:11;;;;;;;23.48;10.65;;;8.40;90.30;;;;;;5115609;28;20090;-74
2022/03/05 11:05:38;;;;;;;24.83;11.20;;;8.70;90.30;;;;;;5116117;28;20105;-74
2022/03/05 11:08:05;;;;;;;22.48;11.23;;;8.70;90.20;;;;;;5116106;28;20031;-74
2022/03/05 11:10:31;;;;;;;24.17;10.40;;;8.60;90.10;;;;;;5099462;28;20435;-78
2022/03/05 11:12:59;;;;;;;28.70;11.45;;;8.70;89.80;;;;;;5116120;28;20142;-75
2022/03/05 11:15:32;;;;;;;24.05;11.32;;;8.30;90.50;;;;;;5134190;28;20093;-73
2022/03/05 11:17:58;;;;;;;21.58;10.85;;;8.50;90.10;;;;;;5117208;27;20054;-73
2022/03/05 11:20:25;;;;;;;25.98;11.23;;;8.60;90.10;;;;;;5119375;27;20057;-75
2022/03/05 11:22:52;;;;;;;22.55;10.60;;;8.90;90.20;;;;;;5120286;27;20051;-74
2022/03/05 11:25:21;;;;;;;19.73;10.32;;;9.30;89.60;;;;;;5119558;27;20047;-74
2022/03/05 11:27:57;;;;;;;22.73;11.07;;;9.30;88.80;;;;;;5119475;27;20035;-74
2022/03/05 11:30:23;;;;;;;;;;;9.80;89.00;;;;;;5120695;27;20386;-73
2022/03/05 11:32:49;;;;;;;17.97;9.57;;;9.90;87.70;;;;;;5119364;27;19919;-74
2022/03/05 11:35:19;;;;;;;20.80;10.27;;;9.80;87.30;;;;;;5102437;27;20051;-73
2022/03/05 11:37:47;;;;;;;21.27;9.95;;;9.80;87.70;;;;;;5119545;27;20043;-73
2022/03/05 11:40:30;;;;;;;19.33;10.25;;;10.00;87.50;;;;;;5119546;27;20046;-73
2022/03/05 11:43:18;;;;;;;19.92;9.55;;;10.10;86.40;;;;;;5120076;27;20136;-73
2022/03/05 11:45:50;;;;;;;23.05;10.98;;;10.00;87.20;;;;;;5137546;27;20474;-73
2022/03/05 11:48:25;;;;;;;21.30;11.32;;;10.20;86.40;;;;;;5119042;27;20039;-73
2022/03/05 11:50:52;;;;;;;20.45;10.90;;;10.00;85.90;;;;;;5119264;27;20047;-74
2022/03/05 11:53:18;;;;;;;22.17;10.55;;;10.30;86.10;;;;;;5137781;27;20043;-73
2022/03/05 11:55:46;;;;;;;19.75;10.90;;;10.40;86.30;;;;;;5102207;27;20587;-73
2022/03/05 11:58:14;;;;;;;22.75;10.65;;;10.80;85.20;;;;;;5137342;27;20047;-74
2022/03/05 12:00:51;;;;;;;21.50;11.00;;;11.00;84.40;;;;;;5118881;27;20413;-73
2022/03/05 12:03:38;;;;;;;22.20;10.90;;;11.00;84.00;;;;;;5119417;27;20108;-74
2022/03/05 12:06:04;;;;;;;20.00;10.63;;;11.10;84.30;;;;;;5119295;27;20046;-73
2022/03/05 12:08:30;;;;;;;23.02;11.18;;;11.10;83.60;;;;;;5137518;27;20043;-74
2022/03/05 12:11:16;;;;;;;19.00;10.98;;;11.10;83.60;;;;;;5118400;27;20505;-74
2022/03/05 12:13:43;;;;;;;22.25;10.85;;;11.60;83.80;;;;;;5137057;27;20055;-74
2022/03/05 12:16:17;;;;;;;21.05;11.07;;;11.80;82.50;;;;;;5136928;27;20453;-74
2022/03/05 12:18:44;;;;;;;20.40;10.25;;;11.60;82.20;;;;;;5136685;27;20047;-74
2022/03/05 12:21:10;;;;;;;22.15;10.95;;;11.90;82.00;;;;;;5118905;27;20429;-71
2022/03/05 12:23:35;;;;;;;20.33;10.50;;;12.20;82.00;;;;;;5138806;27;20061;-74
2022/03/05 12:26:04;;;;;;;21.10;11.25;;;12.90;81.10;;;;;;5119625;27;20051;-72
2022/03/05 12:28:41;;;;;;;20.58;11.18;;;12.90;80.30;;;;;;5118369;27;20043;-76
2022/03/05 12:31:15;;;;;;;20.88;10.95;;;12.80;80.10;;;;;;5117515;27;20043;-72
2022/03/05 12:33:40;;;;;;;21.92;11.25;;;13.20;79.70;;;;;;5136430;27;20540;-72
2022/03/05 12:36:16;;;;;;;22.10;11.40;;;13.00;78.40;;;;;;5118441;27;20148;-72
2022/03/05 12:38:42;;;;;;;21.90;12.00;;;13.00;78.80;;;;;;5118676;27;20149;-72
2022/03/05 12:41:09;;;;;;;21.70;11.07;;;12.80;77.70;;;;;;5118341;27;20795;-72
2022/03/05 12:43:35;;;;;;;22.45;11.35;;;12.90;78.00;;;;;;5118162;27;20471;-71